Terminal Aerodrome Forecast
Issued by NWS Charleston, WV

Current Version | Previous Version | Graphics & Text | Print | Product List | Glossary On
Versions: 1 2 3 4 5 6 7 8 9 10 11 12 13 14 15 16 17 18 19 20 21 22 23 24
000
FTUS41 KRLX 242300
TAFEKN
TAF
KEKN 242320Z 2500/2524 26012G28KT P6SM BKN040
     FM250300 26011G18KT P6SM BKN040
     FM250700 25008KT P6SM BKN040
     FM251400 26008G15KT P6SM SCT040
     FM252200 26008KT P6SM SCT200=

USA.gov is the U.S. government's official web portal to all federal, state and local government web resources and services.